Susan Elizabeth — WDG4681 — position and weather

sailwx.info

Track history (hours):
 
Tides and Currents Weather Stations Pressure Air Temp Water Temp Dewpoint Dewpoint Depression Visibility Wind Speed Wind Dir Waves Ship Positions

Susan Elizabeth

Owner: Kirby Inland Marine, LP, Houston, TX. More information available from US FCC via Universal Licensing System and Coast Guard Vessel Documentation Center.

Last reported at 2018-Feb-21 20:14 UTC. Time now 2018-Feb-23 08:50 UTC.
Position N 29°33' W 090°25'.

Length 23 m; draft 3 m.

Type: Other ship. MMSI: 367022350.

Date/timePositionNaut miles runAvg speedWind from/ knotsBaromVisibWave heightAir tempDewpointWater temp
2018-Feb-21 20:14N 29°33' W 090°25'2 5.9
2018-Feb-21 19:58N 29°33' W 090°26'3 5.8
2018-Feb-21 19:30N 29°34' W 090°30'3 5.7
2018-Feb-21 18:59N 29°34' W 090°33'3 5.4
2018-Feb-21 18:30N 29°35' W 090°36'2 3.2
2018-Feb-21 18:00N 29°35' W 090°38'2 5.0
2018-Feb-21 17:30N 29°36' W 090°40'2 3.8
2018-Feb-21 17:00N 29°37' W 090°42'2 4.2
2018-Feb-21 16:30N 29°35' W 090°43'1 1.9
2018-Feb-21 15:59N 29°34' W 090°44'0 0.0
2018-Feb-21 15:30N 29°34' W 090°44'0 0.0
2018-Feb-21 15:00N 29°34' W 090°44'1 1.7
2018-Feb-21 14:30N 29°34' W 090°45'1 2.7
2018-Feb-21 14:00N 29°33' W 090°45'1 1.9
2018-Feb-21 13:30N 29°32' W 090°46'2 4.3
2018-Feb-21 13:00N 29°32' W 090°49'62 3.9
2018-Feb-20 20:53N 29°50' W 091°57'2 4.6
2018-Feb-20 20:30N 29°50' W 091°59'2 4.9
2018-Feb-20 20:00N 29°49' W 092°02'2 4.9
2018-Feb-20 19:30N 29°48' W 092°04'3 5.9
2018-Feb-20 19:00N 29°47' W 092°08'3 5.7
2018-Feb-20 18:30N 29°47' W 092°11'2 3.5
2018-Feb-20 18:00N 29°47' W 092°13'2 4.8
2018-Feb-20 17:30N 29°48' W 092°15'3 5.0
2018-Feb-20 17:00N 29°49' W 092°18'2 4.6
2018-Feb-20 16:30N 29°51' W 092°20'32 4.4
2018-Feb-20 09:06N 29°56' W 092°57'2 4.4
2018-Feb-20 08:43N 29°56' W 092°59'2 4.2
2018-Feb-20 08:17N 29°56' W 093°01'1 4.8
2018-Feb-20 08:01N 29°56' W 093°02'2 4.7
2018-Feb-20 07:30N 29°56' W 093°05'2 4.6
2018-Feb-20 07:00N 29°56' W 093°08'2 4.4
2018-Feb-20 06:30N 29°57' W 093°10'3 5.0
2018-Feb-20 06:00N 29°59' W 093°12'2 4.7
2018-Feb-20 05:30N 30°01' W 093°14'2 4.4
2018-Feb-20 05:00N 30°02' W 093°15'2 4.3
2018-Feb-20 04:30N 30°04' W 093°16'2 3.1
2018-Feb-20 04:00N 30°05' W 093°18'1 1.7
2018-Feb-20 03:30N 30°06' W 093°18'2 3.9
2018-Feb-20 03:00N 30°05' W 093°20'1 2.3
2018-Feb-20 02:30N 30°04' W 093°21'2 3.6
2018-Feb-20 02:00N 30°04' W 093°23'3 5.4
2018-Feb-20 01:30N 30°04' W 093°26'3 5.3
2018-Feb-20 01:00N 30°04' W 093°29'3 5.4
2018-Feb-20 00:30N 30°04' W 093°32'3 5.3
2018-Feb-20 00:00N 30°04' W 093°35'3 5.5
2018-Feb-19 23:30N 30°04' W 093°38'3 5.4
2018-Feb-19 23:00N 30°03' W 093°42'2 4.8
2018-Feb-19 22:30N 30°02' W 093°44'3 5.4
2018-Feb-19 22:01N 30°00' W 093°46'1 1.6
2018-Feb-19 21:30N 29°60' W 093°47'2 3.0
2018-Feb-19 21:00N 29°59' W 093°48'2 3.5
2018-Feb-19 20:30N 29°59' W 093°50'1 1.5
2018-Feb-19 20:01N 29°58' W 093°51'0 0.3
2018-Feb-19 19:30N 29°58' W 093°51'0 0.3
2018-Feb-19 19:01N 29°58' W 093°51'0 0.8
2018-Feb-19 18:30N 29°58' W 093°51'1 2.2
2018-Feb-19 18:00N 29°57' W 093°52'3 6.1
2018-Feb-19 17:30N 29°54' W 093°54'3 6.7
2018-Feb-19 17:00N 29°52' W 093°56'3 6.1
2018-Feb-19 16:30N 29°49' W 093°58'2 3.1
2018-Feb-19 16:01N 29°49' W 093°60'3 5.6
2018-Feb-19 15:30N 29°47' W 094°02'3 5.6
2018-Feb-19 15:00N 29°45' W 094°05'3 5.4
2018-Feb-19 14:30N 29°43' W 094°07'3 5.2
2018-Feb-19 14:00N 29°41' W 094°09'3 5.2
2018-Feb-19 13:30N 29°41' W 094°12'2 4.2
2018-Feb-19 13:00N 29°40' W 094°14'2 4.9
2018-Feb-19 12:30N 29°39' W 094°17'3 5.2
2018-Feb-19 12:00N 29°37' W 094°20'1 1.3
2018-Feb-19 11:30N 29°37' W 094°20'0 0.2
2018-Feb-19 11:00N 29°37' W 094°20'0 0.2
2018-Feb-19 10:30N 29°37' W 094°20'0 0.1
2018-Feb-19 10:00N 29°37' W 094°20'0 0.0
2018-Feb-19 09:30N 29°37' W 094°20'0 0.0
2018-Feb-19 09:00N 29°37' W 094°20'0 0.0
2018-Feb-19 08:30N 29°37' W 094°20'0 0.0
2018-Feb-19 08:00N 29°37' W 094°20'0 0.0
2018-Feb-19 07:30N 29°37' W 094°20'0 0.0
2018-Feb-19 07:00N 29°37' W 094°20'0 0.0
2018-Feb-19 06:30N 29°37' W 094°20'0 0.0
2018-Feb-19 05:57N 29°37' W 094°20'0 0.0
2018-Feb-19 05:31N 29°37' W 094°20'0 0.0
2018-Feb-19 05:00N 29°37' W 094°20'0 0.0
2018-Feb-19 04:30N 29°37' W 094°20'0 0.0
2018-Feb-19 04:00N 29°37' W 094°20'0 0.1
2018-Feb-19 03:30N 29°37' W 094°20'0 0.0
2018-Feb-19 03:00N 29°37' W 094°20'0 0.0
2018-Feb-19 02:30N 29°37' W 094°20'0 0.0
2018-Feb-19 02:00N 29°37' W 094°20'0 0.0
2018-Feb-19 01:30N 29°37' W 094°20'0 0.0
2018-Feb-19 01:00N 29°37' W 094°20'0 0.0
2018-Feb-19 00:29N 29°37' W 094°20'0 0.2
2018-Feb-19 00:00N 29°37' W 094°20'2 3.4
2018-Feb-18 23:23N 29°36' W 094°22'2 3.6
2018-Feb-18 22:56N 29°36' W 094°24'2 1.7
2018-Feb-18 21:53N 29°34' W 094°25'2 3.7
2018-Feb-18 21:18N 29°34' W 094°27'1 4.3
2018-Feb-18 20:59N 29°33' W 094°28'0 0.1
2018-Feb-18 18:33N 29°32' W 094°29'0 0.0
2018-Feb-18 16:55N 29°32' W 094°29'0 0.0
2018-Feb-18 16:26N 29°32' W 094°29'0 0.0
2018-Feb-18 14:37N 29°32' W 094°29'0 0.0
2018-Feb-18 12:59N 29°32' W 094°29'0 0.0
2018-Feb-18 07:56N 29°32' W 094°29'0 0.0
2018-Feb-18 07:30N 29°32' W 094°29'0 0.0
2018-Feb-18 01:50N 29°32' W 094°29'0 0.0
2018-Feb-18 01:25N 29°32' W 094°29'1 0.9
2018-Feb-17 23:51N 29°31' W 094°30'2 2.9
2018-Feb-17 23:13N 29°31' W 094°32'0 0.4
2018-Feb-17 22:34N 29°31' W 094°32'0 0.1
2018-Feb-17 22:20N 29°31' W 094°32'0 0.4
2018-Feb-17 21:44N 29°30' W 094°32'2 4.3
2018-Feb-17 21:23N 29°30' W 094°34'16 1.3
2018-Feb-17 08:43N 29°21' W 094°49'0 0.0
2018-Feb-17 08:25N 29°21' W 094°49'0 0.0
2018-Feb-17 07:48N 29°21' W 094°49'0 0.0
2018-Feb-17 07:26N 29°21' W 094°49'0 0.0
2018-Feb-17 06:43N 29°21' W 094°49'0 0.0
2018-Feb-17 06:26N 29°21' W 094°49'0 0.0
2018-Feb-17 05:59N 29°21' W 094°49'0 0.0
2018-Feb-17 05:30N 29°21' W 094°49'0 0.0
2018-Feb-17 05:00N 29°21' W 094°49'0 0.0
2018-Feb-17 04:16N 29°21' W 094°49'0 0.0
2018-Feb-17 04:00N 29°21' W 094°49'0 0.0
2018-Feb-17 03:30N 29°21' W 094°49'0 0.0
2018-Feb-17 02:41N 29°21' W 094°49'0 0.0
2018-Feb-17 02:23N 29°21' W 094°49'0 0.0
2018-Feb-17 01:57N 29°21' W 094°49'0 0.0
2018-Feb-17 01:30N 29°21' W 094°49'0 0.0
2018-Feb-17 01:00N 29°21' W 094°49'0 0.1
2018-Feb-17 00:24N 29°21' W 094°49'0 0.0
2018-Feb-16 23:47N 29°21' W 094°49'22 1.4
2018-Feb-16 08:25N 29°14' W 095°13'0 0.0
2018-Feb-16 08:00N 29°14' W 095°13'0 0.0
2018-Feb-16 07:30N 29°14' W 095°13'0 0.0
2018-Feb-16 06:59N 29°14' W 095°13'0 0.0
2018-Feb-16 06:29N 29°14' W 095°13'0 0.0
2018-Feb-16 05:59N 29°14' W 095°13'0 0.0
2018-Feb-16 05:30N 29°14' W 095°13'0 0.0
2018-Feb-16 05:00N 29°14' W 095°13'0 0.0
2018-Feb-16 04:30N 29°14' W 095°13'0 0.0
2018-Feb-16 04:00N 29°14' W 095°13'0 0.0
2018-Feb-16 03:27N 29°14' W 095°13'0 0.0
2018-Feb-16 02:58N 29°14' W 095°13'0 0.0
2018-Feb-16 02:29N 29°14' W 095°13'0 0.0
2018-Feb-16 02:00N 29°14' W 095°13'0 0.0
2018-Feb-16 01:30N 29°14' W 095°13'1 0.5
2018-Feb-16 00:17N 29°14' W 095°13'1 0.0
2018-Feb-15 03:37N 29°15' W 095°13'0 0.0
2018-Feb-15 03:30N 29°15' W 095°13'2 0.7
2018-Feb-15 00:36N 29°13' W 095°12'0 2.9
2018-Feb-15 00:30N 29°13' W 095°13'1 0.3
2018-Feb-14 22:10N 29°13' W 095°12'2 5.5
2018-Feb-14 21:50N 29°12' W 095°10'3 4.6
2018-Feb-14 21:09N 29°10' W 095°07'1 4.8
2018-Feb-14 21:00N 29°10' W 095°06'3 5.3
2018-Feb-14 20:30N 29°12' W 095°04'1 2.6
2018-Feb-14 20:00N 29°13' W 095°02'0 0.0
2018-Feb-14 19:30N 29°13' W 095°02'2 3.8
2018-Feb-14 19:00N 29°14' W 095°01'3 5.3
2018-Feb-14 18:30N 29°16' W 094°59'0 0.8
2018-Feb-14 17:58N 29°16' W 094°59'0 0.0
2018-Feb-14 17:27N 29°16' W 094°59'0 0.0
2018-Feb-14 16:58N 29°16' W 094°59'0 0.0
2018-Feb-14 16:28N 29°16' W 094°59'0 0.0
2018-Feb-14 16:00N 29°16' W 094°59'0 0.0
2018-Feb-14 15:26N 29°16' W 094°59'0 0.0
2018-Feb-14 14:50N 29°16' W 094°59'0 0.0
2018-Feb-14 14:27N 29°16' W 094°59'0 0.0
2018-Feb-14 13:55N 29°16' W 094°59'0 0.0
2018-Feb-14 13:24N 29°16' W 094°59'0 0.0
2018-Feb-14 13:00N 29°16' W 094°59'0 0.0
2018-Feb-14 12:28N 29°16' W 094°59'0 0.0
2018-Feb-14 11:54N 29°16' W 094°59'0 0.0
2018-Feb-14 11:26N 29°16' W 094°59'20 0.6
2018-Feb-13 02:03N 29°36' W 095°01'0 0.0
2018-Feb-13 01:59N 29°36' W 095°01'0 0.0
2018-Feb-13 01:24N 29°36' W 095°01'0 0.0
2018-Feb-13 00:59N 29°36' W 095°01'0 0.0
2018-Feb-13 00:30N 29°36' W 095°01'0 0.0
2018-Feb-13 00:00N 29°36' W 095°01'0 0.0
2018-Feb-12 23:30N 29°36' W 095°01'0 0.0
2018-Feb-12 22:56N 29°36' W 095°01'0 0.0
2018-Feb-12 22:27N 29°36' W 095°01'0 0.0
2018-Feb-12 21:59N 29°36' W 095°01'0 0.0
2018-Feb-12 21:25N 29°36' W 095°01'0 0.0
2018-Feb-12 21:00N 29°36' W 095°01'0 0.0
2018-Feb-12 20:30N 29°36' W 095°01'0 0.0
2018-Feb-12 19:59N 29°36' W 095°01'0 0.0
2018-Feb-12 19:27N 29°36' W 095°01'0 0.0
2018-Feb-12 19:00N 29°36' W 095°01'0 0.0
2018-Feb-12 18:30N 29°36' W 095°01'0 0.0
2018-Feb-12 17:59N 29°36' W 095°01'0 0.0
2018-Feb-12 17:29N 29°36' W 095°01'0 0.0
2018-Feb-12 16:59N 29°36' W 095°01'0 0.0
2018-Feb-12 16:30N 29°36' W 095°01'0 0.0
2018-Feb-12 16:00N 29°36' W 095°01'0 0.0
2018-Feb-12 15:30N 29°36' W 095°01'0 0.1
2018-Feb-12 15:00N 29°36' W 095°01'0 0.7
2018-Feb-12 14:30N 29°37' W 095°01'1 2.5
2018-Feb-12 14:00N 29°37' W 094°59'3 6.2
2018-Feb-12 13:30N 29°35' W 094°56'15 1.4
2018-Feb-12 02:15N 29°25' W 094°43'0 0.0
2018-Feb-12 01:56N 29°25' W 094°43'0 0.0
2018-Feb-12 01:30N 29°25' W 094°43'0 0.0
2018-Feb-12 00:59N 29°25' W 094°43'0 0.0
2018-Feb-12 00:00N 29°25' W 094°43'0 0.0
2018-Feb-11 22:50N 29°25' W 094°43'  
Track history (hours):
 
Tides and Currents Weather Stations Pressure Air Temp Water Temp Dewpoint Dewpoint Depression Visibility Wind Speed Wind Dir Waves Ship Positions

Susan Elizabeth

Owner: Kirby Inland Marine, LP, Houston, TX. More information available from US FCC via Universal Licensing System and Coast Guard Vessel Documentation Center.

Last reported at 2018-Feb-21 20:14 UTC. Time now 2018-Feb-23 08:50 UTC.
Position N 29°33' W 090°25'.

Length 23 m; draft 3 m.

Type: Other ship. MMSI: 367022350.

Date/timePositionNaut miles runAvg speedWind from/ knotsBaromVisibWave heightAir tempDewpointWater temp
2018-Feb-21 20:14N 29°33' W 090°25'2 5.9
2018-Feb-21 19:58N 29°33' W 090°26'3 5.8
2018-Feb-21 19:30N 29°34' W 090°30'3 5.7
2018-Feb-21 18:59N 29°34' W 090°33'3 5.4
2018-Feb-21 18:30N 29°35' W 090°36'2 3.2
2018-Feb-21 18:00N 29°35' W 090°38'2 5.0
2018-Feb-21 17:30N 29°36' W 090°40'2 3.8
2018-Feb-21 17:00N 29°37' W 090°42'2 4.2
2018-Feb-21 16:30N 29°35' W 090°43'1 1.9
2018-Feb-21 15:59N 29°34' W 090°44'0 0.0
2018-Feb-21 15:30N 29°34' W 090°44'0 0.0
2018-Feb-21 15:00N 29°34' W 090°44'1 1.7
2018-Feb-21 14:30N 29°34' W 090°45'1 2.7
2018-Feb-21 14:00N 29°33' W 090°45'1 1.9
2018-Feb-21 13:30N 29°32' W 090°46'2 4.3
2018-Feb-21 13:00N 29°32' W 090°49'62 3.9
2018-Feb-20 20:53N 29°50' W 091°57'2 4.6
2018-Feb-20 20:30N 29°50' W 091°59'2 4.9
2018-Feb-20 20:00N 29°49' W 092°02'2 4.9
2018-Feb-20 19:30N 29°48' W 092°04'3 5.9
2018-Feb-20 19:00N 29°47' W 092°08'3 5.7
2018-Feb-20 18:30N 29°47' W 092°11'2 3.5
2018-Feb-20 18:00N 29°47' W 092°13'2 4.8
2018-Feb-20 17:30N 29°48' W 092°15'3 5.0
2018-Feb-20 17:00N 29°49' W 092°18'2 4.6
2018-Feb-20 16:30N 29°51' W 092°20'32 4.4
2018-Feb-20 09:06N 29°56' W 092°57'2 4.4
2018-Feb-20 08:43N 29°56' W 092°59'2 4.2
2018-Feb-20 08:17N 29°56' W 093°01'1 4.8
2018-Feb-20 08:01N 29°56' W 093°02'2 4.7
2018-Feb-20 07:30N 29°56' W 093°05'2 4.6
2018-Feb-20 07:00N 29°56' W 093°08'2 4.4
2018-Feb-20 06:30N 29°57' W 093°10'3 5.0
2018-Feb-20 06:00N 29°59' W 093°12'2 4.7
2018-Feb-20 05:30N 30°01' W 093°14'2 4.4
2018-Feb-20 05:00N 30°02' W 093°15'2 4.3
2018-Feb-20 04:30N 30°04' W 093°16'2 3.1
2018-Feb-20 04:00N 30°05' W 093°18'1 1.7
2018-Feb-20 03:30N 30°06' W 093°18'2 3.9
2018-Feb-20 03:00N 30°05' W 093°20'1 2.3
2018-Feb-20 02:30N 30°04' W 093°21'2 3.6
2018-Feb-20 02:00N 30°04' W 093°23'3 5.4
2018-Feb-20 01:30N 30°04' W 093°26'3 5.3
2018-Feb-20 01:00N 30°04' W 093°29'3 5.4
2018-Feb-20 00:30N 30°04' W 093°32'3 5.3
2018-Feb-20 00:00N 30°04' W 093°35'3 5.5
2018-Feb-19 23:30N 30°04' W 093°38'3 5.4
2018-Feb-19 23:00N 30°03' W 093°42'2 4.8
2018-Feb-19 22:30N 30°02' W 093°44'3 5.4
2018-Feb-19 22:01N 30°00' W 093°46'1 1.6
2018-Feb-19 21:30N 29°60' W 093°47'2 3.0
2018-Feb-19 21:00N 29°59' W 093°48'2 3.5
2018-Feb-19 20:30N 29°59' W 093°50'1 1.5
2018-Feb-19 20:01N 29°58' W 093°51'0 0.3
2018-Feb-19 19:30N 29°58' W 093°51'0 0.3
2018-Feb-19 19:01N 29°58' W 093°51'0 0.8
2018-Feb-19 18:30N 29°58' W 093°51'1 2.2
2018-Feb-19 18:00N 29°57' W 093°52'3 6.1
2018-Feb-19 17:30N 29°54' W 093°54'3 6.7
2018-Feb-19 17:00N 29°52' W 093°56'3 6.1
2018-Feb-19 16:30N 29°49' W 093°58'2 3.1
2018-Feb-19 16:01N 29°49' W 093°60'3 5.6
2018-Feb-19 15:30N 29°47' W 094°02'3 5.6
2018-Feb-19 15:00N 29°45' W 094°05'3 5.4
2018-Feb-19 14:30N 29°43' W 094°07'3 5.2
2018-Feb-19 14:00N 29°41' W 094°09'3 5.2
2018-Feb-19 13:30N 29°41' W 094°12'2 4.2
2018-Feb-19 13:00N 29°40' W 094°14'2 4.9
2018-Feb-19 12:30N 29°39' W 094°17'3 5.2
2018-Feb-19 12:00N 29°37' W 094°20'1 1.3
2018-Feb-19 11:30N 29°37' W 094°20'0 0.2
2018-Feb-19 11:00N 29°37' W 094°20'0 0.2
2018-Feb-19 10:30N 29°37' W 094°20'0 0.1
2018-Feb-19 10:00N 29°37' W 094°20'0 0.0
2018-Feb-19 09:30N 29°37' W 094°20'0 0.0
2018-Feb-19 09:00N 29°37' W 094°20'0 0.0
2018-Feb-19 08:30N 29°37' W 094°20'0 0.0
2018-Feb-19 08:00N 29°37' W 094°20'0 0.0
2018-Feb-19 07:30N 29°37' W 094°20'0 0.0
2018-Feb-19 07:00N 29°37' W 094°20'0 0.0
2018-Feb-19 06:30N 29°37' W 094°20'0 0.0
2018-Feb-19 05:57N 29°37' W 094°20'0 0.0
2018-Feb-19 05:31N 29°37' W 094°20'0 0.0
2018-Feb-19 05:00N 29°37' W 094°20'0 0.0
2018-Feb-19 04:30N 29°37' W 094°20'0 0.0
2018-Feb-19 04:00N 29°37' W 094°20'0 0.1
2018-Feb-19 03:30N 29°37' W 094°20'0 0.0
2018-Feb-19 03:00N 29°37' W 094°20'0 0.0
2018-Feb-19 02:30N 29°37' W 094°20'0 0.0
2018-Feb-19 02:00N 29°37' W 094°20'0 0.0
2018-Feb-19 01:30N 29°37' W 094°20'0 0.0
2018-Feb-19 01:00N 29°37' W 094°20'0 0.0
2018-Feb-19 00:29N 29°37' W 094°20'0 0.2
2018-Feb-19 00:00N 29°37' W 094°20'2 3.4
2018-Feb-18 23:23N 29°36' W 094°22'2 3.6
2018-Feb-18 22:56N 29°36' W 094°24'2 1.7
2018-Feb-18 21:53N 29°34' W 094°25'2 3.7
2018-Feb-18 21:18N 29°34' W 094°27'1 4.3
2018-Feb-18 20:59N 29°33' W 094°28'0 0.1
2018-Feb-18 18:33N 29°32' W 094°29'0 0.0
2018-Feb-18 16:55N 29°32' W 094°29'0 0.0
2018-Feb-18 16:26N 29°32' W 094°29'0 0.0
2018-Feb-18 14:37N 29°32' W 094°29'0 0.0
2018-Feb-18 12:59N 29°32' W 094°29'0 0.0
2018-Feb-18 07:56N 29°32' W 094°29'0 0.0
2018-Feb-18 07:30N 29°32' W 094°29'0 0.0
2018-Feb-18 01:50N 29°32' W 094°29'0 0.0
2018-Feb-18 01:25N 29°32' W 094°29'1 0.9
2018-Feb-17 23:51N 29°31' W 094°30'2 2.9
2018-Feb-17 23:13N 29°31' W 094°32'0 0.4
2018-Feb-17 22:34N 29°31' W 094°32'0 0.1
2018-Feb-17 22:20N 29°31' W 094°32'0 0.4
2018-Feb-17 21:44N 29°30' W 094°32'2 4.3
2018-Feb-17 21:23N 29°30' W 094°34'16 1.3
2018-Feb-17 08:43N 29°21' W 094°49'0 0.0
2018-Feb-17 08:25N 29°21' W 094°49'0 0.0
2018-Feb-17 07:48N 29°21' W 094°49'0 0.0
2018-Feb-17 07:26N 29°21' W 094°49'0 0.0
2018-Feb-17 06:43N 29°21' W 094°49'0 0.0
2018-Feb-17 06:26N 29°21' W 094°49'0 0.0
2018-Feb-17 05:59N 29°21' W 094°49'0 0.0
2018-Feb-17 05:30N 29°21' W 094°49'0 0.0
2018-Feb-17 05:00N 29°21' W 094°49'0 0.0
2018-Feb-17 04:16N 29°21' W 094°49'0 0.0
2018-Feb-17 04:00N 29°21' W 094°49'0 0.0
2018-Feb-17 03:30N 29°21' W 094°49'0 0.0
2018-Feb-17 02:41N 29°21' W 094°49'0 0.0
2018-Feb-17 02:23N 29°21' W 094°49'0 0.0
2018-Feb-17 01:57N 29°21' W 094°49'0 0.0
2018-Feb-17 01:30N 29°21' W 094°49'0 0.0
2018-Feb-17 01:00N 29°21' W 094°49'0 0.1
2018-Feb-17 00:24N 29°21' W 094°49'0 0.0
2018-Feb-16 23:47N 29°21' W 094°49'22 1.4
2018-Feb-16 08:25N 29°14' W 095°13'0 0.0
2018-Feb-16 08:00N 29°14' W 095°13'0 0.0
2018-Feb-16 07:30N 29°14' W 095°13'0 0.0
2018-Feb-16 06:59N 29°14' W 095°13'0 0.0
2018-Feb-16 06:29N 29°14' W 095°13'0 0.0
2018-Feb-16 05:59N 29°14' W 095°13'0 0.0
2018-Feb-16 05:30N 29°14' W 095°13'0 0.0
2018-Feb-16 05:00N 29°14' W 095°13'0 0.0
2018-Feb-16 04:30N 29°14' W 095°13'0 0.0
2018-Feb-16 04:00N 29°14' W 095°13'0 0.0
2018-Feb-16 03:27N 29°14' W 095°13'0 0.0
2018-Feb-16 02:58N 29°14' W 095°13'0 0.0
2018-Feb-16 02:29N 29°14' W 095°13'0 0.0
2018-Feb-16 02:00N 29°14' W 095°13'0 0.0
2018-Feb-16 01:30N 29°14' W 095°13'1 0.5
2018-Feb-16 00:17N 29°14' W 095°13'1 0.0
2018-Feb-15 03:37N 29°15' W 095°13'0 0.0
2018-Feb-15 03:30N 29°15' W 095°13'2 0.7
2018-Feb-15 00:36N 29°13' W 095°12'0 2.9
2018-Feb-15 00:30N 29°13' W 095°13'1 0.3
2018-Feb-14 22:10N 29°13' W 095°12'2 5.5
2018-Feb-14 21:50N 29°12' W 095°10'3 4.6
2018-Feb-14 21:09N 29°10' W 095°07'1 4.8
2018-Feb-14 21:00N 29°10' W 095°06'3 5.3
2018-Feb-14 20:30N 29°12' W 095°04'1 2.6
2018-Feb-14 20:00N 29°13' W 095°02'0 0.0
2018-Feb-14 19:30N 29°13' W 095°02'2 3.8
2018-Feb-14 19:00N 29°14' W 095°01'3 5.3
2018-Feb-14 18:30N 29°16' W 094°59'0 0.8
2018-Feb-14 17:58N 29°16' W 094°59'0 0.0
2018-Feb-14 17:27N 29°16' W 094°59'0 0.0
2018-Feb-14 16:58N 29°16' W 094°59'0 0.0
2018-Feb-14 16:28N 29°16' W 094°59'0 0.0
2018-Feb-14 16:00N 29°16' W 094°59'0 0.0
2018-Feb-14 15:26N 29°16' W 094°59'0 0.0
2018-Feb-14 14:50N 29°16' W 094°59'0 0.0
2018-Feb-14 14:27N 29°16' W 094°59'0 0.0
2018-Feb-14 13:55N 29°16' W 094°59'0 0.0
2018-Feb-14 13:24N 29°16' W 094°59'0 0.0
2018-Feb-14 13:00N 29°16' W 094°59'0 0.0
2018-Feb-14 12:28N 29°16' W 094°59'0 0.0
2018-Feb-14 11:54N 29°16' W 094°59'0 0.0
2018-Feb-14 11:26N 29°16' W 094°59'20 0.6
2018-Feb-13 02:03N 29°36' W 095°01'0 0.0
2018-Feb-13 01:59N 29°36' W 095°01'0 0.0
2018-Feb-13 01:24N 29°36' W 095°01'0 0.0
2018-Feb-13 00:59N 29°36' W 095°01'0 0.0
2018-Feb-13 00:30N 29°36' W 095°01'0 0.0
2018-Feb-13 00:00N 29°36' W 095°01'0 0.0
2018-Feb-12 23:30N 29°36' W 095°01'0 0.0
2018-Feb-12 22:56N 29°36' W 095°01'0 0.0
2018-Feb-12 22:27N 29°36' W 095°01'0 0.0
2018-Feb-12 21:59N 29°36' W 095°01'0 0.0
2018-Feb-12 21:25N 29°36' W 095°01'0 0.0
2018-Feb-12 21:00N 29°36' W 095°01'0 0.0
2018-Feb-12 20:30N 29°36' W 095°01'0 0.0
2018-Feb-12 19:59N 29°36' W 095°01'0 0.0
2018-Feb-12 19:27N 29°36' W 095°01'0 0.0
2018-Feb-12 19:00N 29°36' W 095°01'0 0.0
2018-Feb-12 18:30N 29°36' W 095°01'0 0.0
2018-Feb-12 17:59N 29°36' W 095°01'0 0.0
2018-Feb-12 17:29N 29°36' W 095°01'0 0.0
2018-Feb-12 16:59N 29°36' W 095°01'0 0.0
2018-Feb-12 16:30N 29°36' W 095°01'0 0.0
2018-Feb-12 16:00N 29°36' W 095°01'0 0.0
2018-Feb-12 15:30N 29°36' W 095°01'0 0.1
2018-Feb-12 15:00N 29°36' W 095°01'0 0.7
2018-Feb-12 14:30N 29°37' W 095°01'1 2.5
2018-Feb-12 14:00N 29°37' W 094°59'3 6.2
2018-Feb-12 13:30N 29°35' W 094°56'15 1.4
2018-Feb-12 02:15N 29°25' W 094°43'0 0.0
2018-Feb-12 01:56N 29°25' W 094°43'0 0.0
2018-Feb-12 01:30N 29°25' W 094°43'0 0.0
2018-Feb-12 00:59N 29°25' W 094°43'0 0.0
2018-Feb-12 00:00N 29°25' W 094°43'0 0.0
2018-Feb-11 22:50N 29°25' W 094°43'  

Dump ship's entire track history